Time;durP1;ratioP1;P1;durP2;ratioP2;P2;SDS_P1;SDS_P2;PMS_P1;PMS_P2;Temp;Humidity;BMP_temperature;BMP_pressure;BME280_temperature;BME280_humidity;BME280_pressure;Samples;Min_cycle;Max_cycle;Signal;HPM_P1;HPM_P2
2022/02/12 00:00:51;;;;;;;5.32;3.85;;;;;;;1.75;79.33;103455.22;5092420;28;20055;-81
2022/02/12 00:03:16;;;;;;;5.30;3.28;;;;;;;1.72;79.31;103451.72;5115547;28;20212;-81
2022/02/12 00:05:42;;;;;;;4.07;3.20;;;;;;;1.72;79.39;103448.25;5098176;28;20031;-81
2022/02/12 00:08:08;;;;;;;7.75;3.33;;;;;;;1.70;79.57;103448.19;5113892;28;20031;-81
2022/02/12 00:10:34;;;;;;;6.90;3.38;;;;;;;1.69;79.56;103442.97;5116880;28;20421;-81
2022/02/12 00:12:59;;;;;;;5.45;2.50;;;;;;;1.70;79.52;103443.03;5092294;28;20035;-81
2022/02/12 00:15:25;;;;;;;4.40;2.50;;;;;;;1.69;79.77;103442.97;5096998;28;20039;-81
2022/02/12 00:17:50;;;;;;;3.67;2.72;;;;;;;1.69;79.59;103441.28;5112770;28;20039;-81
2022/02/12 00:20:16;;;;;;;6.78;2.70;;;;;;;1.69;79.98;103427.47;5079759;28;20343;-81
2022/02/12 00:22:42;;;;;;;4.00;2.47;;;;;;;1.69;80.36;103420.63;5084155;28;20028;-81
2022/02/12 00:25:08;;;;;;;3.30;2.10;;;;;;;1.71;80.53;103418.97;5098542;28;20034;-81
2022/02/12 00:27:34;;;;;;;7.25;1.95;;;;;;;1.75;80.36;103421.63;5095994;28;20040;-81
2022/02/12 00:29:59;;;;;;;2.33;1.73;;;;;;;1.77;80.59;103418.31;5095690;28;20077;-81
2022/02/12 00:32:25;;;;;;;5.10;2.00;;;;;;;1.79;80.79;103414.06;5116126;28;20047;-81
2022/02/12 00:34:51;;;;;;;4.50;2.15;;;;;;;1.83;81.26;103402.16;5088289;28;20055;-81
2022/02/12 00:37:16;;;;;;;4.35;1.88;;;;;;;1.84;81.78;103401.34;5092157;28;20039;-81
2022/02/12 00:39:42;;;;;;;1.98;1.75;;;;;;;1.87;81.77;103402.34;5107746;28;20235;-81
2022/02/12 00:42:08;;;;;;;2.95;1.70;;;;;;;1.90;81.98;103394.66;5116396;28;20126;-81
2022/02/12 00:44:33;;;;;;;2.72;1.92;;;;;;;1.93;81.98;103391.34;5082475;28;20039;-81
2022/02/12 00:46:59;;;;;;;6.28;2.22;;;;;;;1.95;82.15;103396.53;5098753;28;20039;-81
2022/02/12 00:49:25;;;;;;;3.30;2.05;;;;;;;1.96;82.34;103393.13;5116642;28;20027;-81
2022/02/12 00:51:51;;;;;;;4.72;2.60;;;;;;;1.98;82.47;103389.78;5097300;28;20052;-81
2022/02/12 00:54:17;;;;;;;2.78;1.60;;;;;;;2.00;82.76;103389.81;5113420;28;20039;-81
2022/02/12 00:56:42;;;;;;;4.18;1.60;;;;;;;2.02;82.84;103385.59;5117542;28;20023;-81
2022/02/12 00:59:08;;;;;;;6.85;2.13;;;;;;;2.02;83.16;103380.41;5116847;28;20038;-81
2022/02/12 01:01:34;;;;;;;6.03;1.95;;;;;;;2.03;83.21;103380.47;5096477;28;20622;-81
2022/02/12 01:04:03;;;;;;;2.53;1.60;;;;;;;2.05;83.37;103380.53;5112344;28;20039;-81
2022/02/12 01:06:30;;;;;;;2.20;1.60;;;;;;;2.06;83.41;103374.56;5083512;28;20026;-81
2022/02/12 01:08:55;;;;;;;2.95;1.85;;;;;;;2.07;83.46;103373.72;5100427;28;20212;-81
2022/02/12 01:11:21;;;;;;;4.82;1.63;;;;;;;2.08;83.17;103375.47;5117609;28;20042;-81
2022/02/12 01:13:46;;;;;;;4.20;1.90;;;;;;;2.08;83.20;103371.19;5099910;28;20031;-81
2022/02/12 01:16:11;;;;;;;1.92;1.70;;;;;;;2.11;83.62;103365.22;5099920;28;20095;-81
2022/02/12 01:18:37;;;;;;;8.38;2.00;;;;;;;2.10;83.82;103361.78;5100320;28;20031;-81
2022/02/12 01:21:02;;;;;;;3.00;1.60;;;;;;;2.12;83.74;103364.41;5105721;28;20243;-81
2022/02/12 01:23:28;;;;;;;3.22;2.00;;;;;;;2.10;84.02;103359.19;5113881;28;20028;-81
2022/02/12 01:25:53;;;;;;;3.70;2.33;;;;;;;2.13;84.04;103357.53;5079683;28;20020;-81
2022/02/12 01:28:20;;;;;;;3.40;1.90;;;;;;;2.12;84.29;103354.06;5112640;28;20344;-81
2022/02/12 01:30:46;;;;;;;3.40;1.88;;;;;;;2.13;84.20;103360.13;5116939;28;20090;-81
2022/02/12 01:33:14;;;;;;;3.88;1.80;;;;;;;2.13;84.40;103355.84;5099588;28;20339;-81
2022/02/12 01:35:39;;;;;;;5.72;1.92;;;;;;;2.14;84.51;103357.59;5118334;28;20350;-81
2022/02/12 01:38:05;;;;;;;3.58;1.73;;;;;;;2.16;84.51;103355.06;5079497;28;20025;-81
2022/02/12 01:40:31;;;;;;;4.45;2.45;;;;;;;2.16;84.46;103360.22;5109457;28;20065;-81
2022/02/12 01:42:56;;;;;;;3.22;1.73;;;;;;;2.16;84.73;103355.94;5083213;28;20061;-81
2022/02/12 01:45:22;;;;;;;4.72;2.05;;;;;;;2.17;84.62;103356.84;5117512;28;20088;-81
2022/02/12 01:47:48;;;;;;;4.55;1.77;;;;;;;2.19;84.73;103360.34;5117865;28;20201;-81
2022/02/12 01:50:15;;;;;;;8.82;1.98;;;;;;;2.19;84.82;103353.47;5099219;28;20055;-81
2022/02/12 01:52:42;;;;;;;2.25;1.98;;;;;;;2.20;85.04;103349.16;5097594;28;20111;-81
2022/02/12 01:55:09;;;;;;;5.90;2.03;;;;;;;2.19;84.99;103344.84;5112934;28;20036;-81
2022/02/12 01:57:35;;;;;;;2.15;1.95;;;;;;;2.21;85.12;103354.38;5097984;28;20047;-81
2022/02/12 02:00:04;;;;;;;2.60;1.90;;;;;;;2.21;85.14;103349.22;5116011;28;20318;-81
2022/02/12 02:02:29;;;;;;;7.22;1.90;;;;;;;2.21;85.11;103341.47;5117944;28;20035;-81
2022/02/12 02:04:55;;;;;;;5.55;2.13;;;;;;;2.22;85.49;103337.16;5079089;28;20266;-81
2022/02/12 02:07:21;;;;;;;2.97;1.90;;;;;;;2.23;85.17;103344.09;5079282;28;20043;-81
2022/02/12 02:09:47;;;;;;;3.13;2.00;;;;;;;2.22;85.31;103334.56;5091536;28;20335;-81
2022/02/12 02:12:12;;;;;;;5.00;1.90;;;;;;;2.23;85.34;103341.53;5100069;28;20040;-81
2022/02/12 02:14:41;;;;;;;4.15;1.98;;;;;;;2.22;85.38;103329.41;5096645;28;20035;-81
2022/02/12 02:17:08;;;;;;;6.53;2.28;;;;;;;2.23;85.31;103319.13;5096988;28;20035;-81
2022/02/12 02:19:34;;;;;;;6.57;1.83;;;;;;;2.24;85.49;103320.03;5097739;28;20061;-81
2022/02/12 02:22:01;;;;;;;8.85;1.92;;;;;;;2.24;85.51;103309.69;5097826;28;20067;-81
2022/02/12 02:24:28;;;;;;;5.00;1.73;;;;;;;2.24;85.78;103309.69;5098846;28;20081;-81
2022/02/12 02:27:04;;;;;;;3.85;2.08;;;;;;;2.24;85.69;103305.38;5100739;28;20028;-81
2022/02/12 02:29:30;;;;;;;3.63;1.70;;;;;;;2.25;85.68;103304.53;5097618;28;20040;-81
2022/02/12 02:31:56;;;;;;;4.82;1.83;;;;;;;2.26;85.66;103300.25;5097301;28;20253;-81
2022/02/12 02:34:21;;;;;;;5.72;1.90;;;;;;;2.27;85.78;103292.56;5097168;28;20103;-81
2022/02/12 02:36:47;;;;;;;6.50;1.67;;;;;;;2.27;85.86;103299.41;5100651;28;20034;-81
2022/02/12 02:39:13;;;;;;;4.50;1.67;;;;;;;2.28;85.97;103290.84;5084435;28;20042;-81
2022/02/12 02:41:38;;;;;;;4.88;1.85;;;;;;;2.29;85.87;103284.81;5069921;28;20327;-81
2022/02/12 02:44:04;;;;;;;3.60;1.88;;;;;;;2.29;86.15;103280.56;5069253;28;20031;-81
2022/02/12 02:46:29;;;;;;;7.70;2.05;;;;;;;2.29;86.02;103271.91;5084962;28;20046;-81
2022/02/12 02:48:54;;;;;;;3.42;1.75;;;;;;;2.31;86.03;103278.03;5101078;28;20103;-81
2022/02/12 02:56:48;;;;;;;5.70;1.77;;;;;;;2.33;85.94;103283.22;5105629;28;20046;-81
2022/02/12 02:59:14;;;;;;;2.58;1.35;;;;;;;2.32;86.25;103277.19;5102670;28;20035;-81
2022/02/12 03:01:39;;;;;;;5.40;2.13;;;;;;;2.33;86.17;103284.13;5085766;28;20127;-81
2022/02/12 03:04:05;;;;;;;8.00;2.17;;;;;;;2.32;85.81;103277.19;5091306;28;20059;-81
2022/02/12 03:06:30;;;;;;;3.30;1.60;;;;;;;2.33;85.94;103275.47;5118025;28;20263;-81
2022/02/12 03:08:57;;;;;;;5.03;2.28;;;;;;;2.33;86.12;103271.19;5117723;28;20035;-81
2022/02/12 03:11:23;;;;;;;2.13;1.40;;;;;;;2.34;86.21;103272.94;5101598;28;20035;-81
2022/02/12 03:13:51;;;;;;;3.03;1.50;;;;;;;2.33;86.27;103266.00;5100176;28;20028;-81
2022/02/12 03:16:17;;;;;;;3.75;1.85;;;;;;;2.35;86.20;103259.19;5102388;28;20407;-81
2022/02/12 03:18:45;;;;;;;1.85;1.65;;;;;;;2.35;86.22;103251.44;5121782;28;20030;-81
2022/02/12 03:21:11;;;;;;;6.15;1.90;;;;;;;2.35;86.33;103242.75;5103120;28;20327;-81
2022/02/12 03:23:37;;;;;;;2.95;1.50;;;;;;;2.37;86.17;103242.00;5070026;28;20019;-81
2022/02/12 03:26:03;;;;;;;4.20;1.50;;;;;;;2.36;86.45;103237.66;5103130;28;20250;-81
2022/02/12 03:28:29;;;;;;;2.65;1.60;;;;;;;2.37;86.19;103231.66;5084035;28;20354;-81
2022/02/12 03:30:54;;;;;;;5.22;1.60;;;;;;;2.36;86.28;103227.31;5116074;28;20040;-81
2022/02/12 03:33:19;;;;;;;3.33;1.67;;;;;;;2.37;86.66;103225.63;5115534;28;20359;-81
2022/02/12 03:35:53;;;;;;;4.93;1.67;;;;;;;2.37;86.45;103225.63;5102557;28;20035;-81
2022/02/12 03:38:21;;;;;;;4.05;1.23;;;;;;;2.37;86.30;103225.63;5119828;28;20031;-81
2022/02/12 03:40:49;;;;;;;6.50;1.30;;;;;;;2.38;86.28;103222.19;5120356;28;20104;-81
2022/02/12 03:43:16;;;;;;;4.45;1.75;;;;;;;2.37;86.34;103218.72;5120238;28;20046;-81
2022/02/12 03:45:43;;;;;;;2.00;1.20;;;;;;;2.37;86.35;103216.13;5120630;28;20027;-81
2022/02/12 03:48:09;;;;;;;2.28;1.33;;;;;;;2.38;86.28;103219.59;5104002;28;20369;-81
2022/02/12 03:50:36;;;;;;;3.75;1.55;;;;;;;2.38;86.28;103209.25;5103926;28;20056;-81
2022/02/12 03:53:03;;;;;;;3.08;1.10;;;;;;;2.39;86.36;103221.38;5101493;28;20294;-81
2022/02/12 03:55:29;;;;;;;5.72;1.25;;;;;;;2.38;86.40;103211.84;5120806;28;20028;-79
2022/02/12 03:57:55;;;;;;;2.03;1.30;;;;;;;2.38;86.27;103204.94;5105552;28;20243;-79
2022/02/12 04:00:21;;;;;;;3.17;1.50;;;;;;;2.38;86.45;103202.34;5101580;28;20046;-79
2022/02/12 04:02:47;;;;;;;4.00;1.50;;;;;;;2.38;86.43;103201.50;5101920;28;20346;-79
2022/02/12 04:05:14;;;;;;;4.63;1.30;;;;;;;2.37;86.34;103197.16;5101584;28;20028;-79
2022/02/12 04:07:42;;;;;;;4.70;1.38;;;;;;;2.38;86.28;103188.56;5100210;28;20113;-79
2022/02/12 04:10:09;;;;;;;5.18;1.65;;;;;;;2.38;86.16;103191.16;5114118;28;20051;-78
2022/02/12 04:12:35;;;;;;;2.08;1.48;;;;;;;2.38;86.44;103192.00;5108095;28;20374;-78
2022/02/12 04:15:01;;;;;;;2.78;1.23;;;;;;;2.37;86.39;103187.69;5119792;28;20031;-78
2022/02/12 04:17:26;;;;;;;4.90;1.67;;;;;;;2.36;86.57;103180.75;5102796;28;20436;-78
2022/02/12 04:19:52;;;;;;;4.53;2.08;;;;;;;2.36;86.36;103183.34;5080692;28;20298;-78
2022/02/12 04:22:17;;;;;;;3.03;1.88;;;;;;;2.36;86.20;103183.34;5117967;28;20062;-78
2022/02/12 04:24:43;;;;;;;3.17;1.70;;;;;;;2.36;86.49;103177.28;5100967;28;20019;-78
2022/02/12 04:27:08;;;;;;;2.22;1.58;;;;;;;2.36;86.25;103178.16;5083610;28;20028;-78
2022/02/12 04:29:34;;;;;;;4.05;2.00;;;;;;;2.36;86.24;103177.28;5080716;28;20107;-78
2022/02/12 04:31:59;;;;;;;3.13;1.77;;;;;;;2.34;86.23;103177.25;5114992;28;20097;-78
2022/02/12 04:34:25;;;;;;;2.33;1.50;;;;;;;2.36;86.17;103172.13;5098778;28;20396;-78
2022/02/12 04:36:50;;;;;;;2.97;1.85;;;;;;;2.34;86.14;103169.47;5113486;28;20039;-78
2022/02/12 04:39:17;;;;;;;3.45;1.80;;;;;;;2.34;86.19;103160.84;5100557;28;20023;-78
2022/02/12 04:41:42;;;;;;;4.20;2.15;;;;;;;2.35;86.06;103152.25;5084167;28;20335;-78
2022/02/12 04:44:08;;;;;;;3.15;2.00;;;;;;;2.34;86.14;103142.75;5118604;28;20050;-78
2022/02/12 04:46:33;;;;;;;2.63;1.88;;;;;;;2.33;86.29;103146.16;5072377;28;20036;-78
2022/02/12 04:48:58;;;;;;;2.45;1.45;;;;;;;2.32;86.20;103134.94;5113739;28;20074;-78
2022/02/12 04:51:24;;;;;;;4.53;2.90;;;;;;;2.33;86.17;103144.47;5117352;28;20055;-78
2022/02/12 04:53:51;;;;;;;2.78;1.92;;;;;;;2.33;86.20;103140.97;5118304;28;20437;-78
2022/02/12 04:56:17;;;;;;;3.72;1.75;;;;;;;2.32;86.25;103136.66;5080341;28;20043;-78
2022/02/12 04:58:43;;;;;;;2.47;1.80;;;;;;;2.32;86.18;103134.06;5080359;28;20043;-79
2022/02/12 05:01:19;;;;;;;2.40;1.58;;;;;;;2.32;86.03;103126.31;5079344;28;20051;-78
2022/02/12 05:03:49;;;;;;;3.70;2.38;;;;;;;2.31;86.41;103128.03;5090366;28;20031;-78
2022/02/12 05:06:16;;;;;;;4.22;2.28;;;;;;;2.29;86.20;103122.81;5100434;28;20057;-78
2022/02/12 05:08:41;;;;;;;3.28;2.08;;;;;;;2.31;86.46;103122.88;5100311;28;20373;-78
2022/02/12 05:11:07;;;;;;;2.88;1.70;;;;;;;2.30;86.05;103113.34;5117988;28;20039;-78
2022/02/12 05:13:32;;;;;;;3.50;1.98;;;;;;;2.29;86.22;103120.22;5106915;28;20243;-78
2022/02/12 05:15:58;;;;;;;4.18;2.05;;;;;;;2.28;86.18;103113.28;5113828;28;20051;-78
2022/02/12 05:18:23;;;;;;;3.67;2.40;;;;;;;2.27;85.81;103116.72;5098069;28;20374;-78
2022/02/12 05:20:49;;;;;;;5.03;2.20;;;;;;;2.27;86.14;103115.81;5096577;28;20236;-79
2022/02/12 05:23:14;;;;;;;2.42;2.05;;;;;;;2.27;86.09;103108.06;5097844;28;20084;-79
2022/02/12 05:25:40;;;;;;;6.90;3.42;;;;;;;2.26;86.09;103116.66;5100763;28;20050;-79
2022/02/12 05:28:06;;;;;;;6.15;2.60;;;;;;;2.26;86.28;103114.09;5099106;28;20035;-79
2022/02/12 05:30:31;;;;;;;4.30;2.72;;;;;;;2.26;86.24;103114.94;5079897;28;20020;-79
2022/02/12 05:32:58;;;;;;;5.82;3.00;;;;;;;2.24;86.17;103110.59;5079762;28;20035;-79
2022/02/12 05:35:23;;;;;;;4.45;2.50;;;;;;;2.24;86.28;103103.69;5096456;28;20043;-79
2022/02/12 05:37:49;;;;;;;3.95;2.42;;;;;;;2.26;86.16;103103.75;5097329;28;20039;-79
2022/02/12 05:40:14;;;;;;;5.53;2.72;;;;;;;2.25;86.11;103099.38;5114879;28;20040;-79
2022/02/12 05:42:40;;;;;;;3.95;2.63;;;;;;;2.26;86.25;103103.75;5082925;28;20097;-79
2022/02/12 05:45:05;;;;;;;4.47;2.80;;;;;;;2.24;85.99;103101.09;5117268;28;20054;-78
2022/02/12 05:47:31;;;;;;;6.38;2.80;;;;;;;2.24;86.04;103101.09;5112099;28;20024;-78
2022/02/12 05:49:56;;;;;;;6.30;2.42;;;;;;;2.23;86.10;103101.91;5096180;28;20032;-78
2022/02/12 05:52:21;;;;;;;4.97;2.72;;;;;;;2.23;86.18;103101.91;5096294;28;20040;-78
2022/02/12 05:54:47;;;;;;;4.40;2.65;;;;;;;2.22;86.11;103095.00;5111491;28;20106;-79
2022/02/12 05:57:13;;;;;;;6.47;2.60;;;;;;;2.22;86.01;103097.59;5081207;28;20042;-79
2022/02/12 05:59:38;;;;;;;3.60;3.08;;;;;;;2.21;86.02;103088.06;5096292;28;20252;-79
2022/02/12 06:02:03;;;;;;;3.03;2.70;;;;;;;2.20;85.98;103088.03;5097233;28;20102;-79
2022/02/12 06:04:30;;;;;;;4.55;3.33;;;;;;;2.19;85.93;103081.13;5096440;28;20043;-79
2022/02/12 06:06:55;;;;;;;5.95;2.83;;;;;;;2.20;86.05;103077.69;5092729;28;20242;-78
2022/02/12 06:09:20;;;;;;;4.32;2.72;;;;;;;2.18;86.06;103080.22;5079965;28;20028;-78
2022/02/12 06:11:46;;;;;;;5.78;3.05;;;;;;;2.18;85.87;103076.75;5113414;28;20051;-78
2022/02/12 06:14:11;;;;;;;4.65;3.42;;;;;;;2.17;85.98;103067.28;5098732;28;20319;-78
2022/02/12 06:16:39;;;;;;;3.05;2.60;;;;;;;2.16;86.02;103061.19;5103044;28;20261;-78
2022/02/12 06:19:04;;;;;;;4.70;2.85;;;;;;;2.16;86.01;103052.56;5119848;28;20042;-78
2022/02/12 06:21:29;;;;;;;3.53;3.20;;;;;;;2.15;85.96;103043.97;5121949;28;20035;-78
2022/02/12 06:23:55;;;;;;;3.03;2.72;;;;;;;2.15;86.07;103048.22;5103343;28;20231;-78
2022/02/12 06:26:20;;;;;;;7.82;3.60;;;;;;;2.15;86.16;103040.47;5114666;28;20031;-78
2022/02/12 06:28:46;;;;;;;4.80;3.33;;;;;;;2.14;85.97;103031.84;5117023;28;20368;-78
2022/02/12 06:31:11;;;;;;;3.00;2.78;;;;;;;2.14;86.04;103028.41;5116764;28;20335;-78
2022/02/12 06:33:36;;;;;;;5.60;3.45;;;;;;;2.13;85.96;103021.47;5101155;28;20358;-78
2022/02/12 06:36:02;;;;;;;4.72;3.15;;;;;;;2.12;85.90;103020.59;5086160;28;20028;-78
2022/02/12 06:38:28;;;;;;;5.18;3.25;;;;;;;2.11;85.92;103024.00;5121178;28;20036;-78
2022/02/12 06:40:53;;;;;;;3.58;3.28;;;;;;;2.11;85.77;103022.31;5121183;28;20209;-78
2022/02/12 06:43:18;;;;;;;4.97;3.53;;;;;;;2.10;85.86;103032.59;5103170;28;20046;-78
2022/02/12 06:45:44;;;;;;;7.32;3.33;;;;;;;2.09;85.76;103023.06;5119734;28;20067;-78
2022/02/12 06:48:09;;;;;;;4.25;3.85;;;;;;;2.09;85.88;103030.81;5101121;28;20039;-78
2022/02/12 06:50:35;;;;;;;3.72;3.30;;;;;;;2.08;85.70;103024.78;5083563;28;20388;-78
2022/02/12 06:53:00;;;;;;;4.80;3.78;;;;;;;2.08;85.83;103032.53;5102986;27;20116;-78
2022/02/12 06:55:26;;;;;;;6.63;4.18;;;;;;;2.07;85.69;103032.50;5097347;28;20251;-78
2022/02/12 06:57:52;;;;;;;5.55;4.00;;;;;;;2.06;85.83;103029.03;5081944;28;20308;-78
2022/02/12 07:00:18;;;;;;;5.97;3.58;;;;;;;2.07;85.81;103030.81;5117531;28;20057;-78
2022/02/12 07:02:43;;;;;;;6.88;4.40;;;;;;;2.07;85.95;103025.66;5115657;28;20327;-78
2022/02/12 07:05:09;;;;;;;3.65;3.25;;;;;;;2.07;86.02;103024.75;5083057;28;20022;-78
2022/02/12 07:07:48;;;;;;;7.88;4.20;;;;;;;2.07;85.85;103028.22;5066284;28;20107;-78
2022/02/12 07:10:15;;;;;;;7.28;4.93;;;;;;;2.08;85.83;103023.94;5081123;28;20077;-78
2022/02/12 07:12:40;;;;;;;10.55;4.20;;;;;;;2.07;85.87;103023.06;5117126;28;20383;-78
2022/02/12 07:15:06;;;;;;;6.93;4.30;;;;;;;2.06;85.83;103021.28;5118059;28;20026;-78
2022/02/12 07:17:32;;;;;;;7.68;4.80;;;;;;;2.07;86.09;103017.00;5099744;28;20027;-78
2022/02/12 07:19:57;;;;;;;8.43;5.45;;;;;;;2.07;85.94;103017.88;5083037;28;20023;-79
2022/02/12 07:22:26;;;;;;;7.25;4.55;;;;;;;2.07;85.97;103020.47;5081280;28;20279;-78
2022/02/12 07:24:52;;;;;;;8.05;5.63;;;;;;;2.07;86.01;103024.75;5099728;28;20031;-78
2022/02/12 07:27:18;;;;;;;6.78;4.25;;;;;;;2.08;86.01;103021.34;5094838;28;20044;-78
2022/02/12 07:29:44;;;;;;;9.07;5.03;;;;;;;2.08;86.16;103019.63;5083167;28;20331;-78
2022/02/12 07:32:09;;;;;;;9.90;4.60;;;;;;;2.08;86.26;103008.41;5095035;28;20050;-78
2022/02/12 07:34:35;;;;;;;7.18;4.97;;;;;;;2.08;86.19;103017.03;5099149;28;20035;-78
2022/02/12 07:37:00;;;;;;;9.00;5.32;;;;;;;2.08;86.05;103009.28;5096961;28;20027;-79
2022/02/12 07:39:27;;;;;;;7.13;4.70;;;;;;;2.08;86.15;103004.13;5096346;28;20039;-79
2022/02/12 07:41:53;;;;;;;7.63;4.43;;;;;;;2.07;86.24;102993.72;5117106;28;20059;-78
2022/02/12 07:44:18;;;;;;;12.38;5.57;;;;;;;2.07;86.24;102989.44;5090978;28;20055;-78
2022/02/12 07:46:43;;;;;;;7.53;5.25;;;;;;;2.08;86.09;102991.19;5095880;28;20357;-78
2022/02/12 07:49:09;;;;;;;11.35;5.38;;;;;;;2.08;86.39;102988.59;5080030;28;20038;-79
2022/02/12 07:51:34;;;;;;;8.32;5.22;;;;;;;2.09;86.38;102994.63;5089268;28;20102;-79
2022/02/12 07:54:00;;;;;;;8.75;5.18;;;;;;;2.09;86.47;103003.28;5101508;28;20031;-79
2022/02/12 07:56:27;;;;;;;9.77;5.65;;;;;;;2.08;86.37;102996.34;5117435;28;20050;-79
2022/02/12 07:58:53;;;;;;;8.05;5.15;;;;;;;2.09;86.27;103003.28;5079510;28;20041;-79
2022/02/12 08:01:18;;;;;;;7.53;4.78;;;;;;;2.10;86.25;103007.63;5113332;28;20390;-78
2022/02/12 08:03:44;;;;;;;14.80;6.15;;;;;;;2.09;86.32;102998.13;5115098;27;20032;-78
2022/02/12 08:07:27;;;;;;;7.82;5.70;;;;;;;2.11;86.52;102998.13;5116673;28;20046;-78
2022/02/12 08:08:55;;;;;;;10.90;5.55;;;;;;;2.13;86.38;102999.09;5114747;28;20059;-78
2022/02/12 08:11:23;;;;;;;12.40;6.40;;;;;;;2.13;86.46;102993.91;5097974;28;20027;-79
2022/02/12 08:13:50;;;;;;;10.13;6.22;;;;;;;2.13;86.45;102993.91;5097255;28;20111;-79
2022/02/12 08:16:16;;;;;;;9.15;5.47;;;;;;;2.14;86.58;102989.63;5115632;28;20285;-79
2022/02/12 08:18:42;;;;;;;9.93;5.32;;;;;;;2.14;86.23;102987.03;5116907;28;20051;-79
2022/02/12 08:21:07;;;;;;;11.73;6.45;;;;;;;2.16;86.70;102978.47;5076423;28;20040;-79
2022/02/12 08:23:32;;;;;;;11.07;6.07;;;;;;;2.17;86.51;102985.41;5094678;28;20054;-79
2022/02/12 08:25:58;;;;;;;14.68;5.88;;;;;;;2.17;86.71;102975.06;5116405;28;20147;-79
2022/02/12 08:28:23;;;;;;;12.38;5.57;;;;;;;2.18;86.82;102989.72;5080277;28;20047;-79
2022/02/12 08:30:48;;;;;;;10.98;6.25;;;;;;;2.20;86.97;102987.19;5097907;28;20032;-79
2022/02/12 08:33:14;;;;;;;9.23;5.88;;;;;;;2.20;86.87;102994.94;5095185;28;20039;-79
2022/02/12 08:35:40;;;;;;;9.70;5.93;;;;;;;2.21;86.86;102981.22;5090949;28;20051;-79
2022/02/12 08:38:06;;;;;;;10.60;6.35;;;;;;;2.22;87.13;102986.44;5080366;28;20335;-79
2022/02/12 08:40:31;;;;;;;7.72;5.78;;;;;;;2.23;86.93;102976.94;5091741;28;20055;-79
2022/02/12 08:42:57;;;;;;;9.25;6.00;;;;;;;2.24;87.18;102977.00;5112318;28;20027;-79
2022/02/12 08:45:24;;;;;;;10.50;5.28;;;;;;;2.26;87.24;102965.00;5111612;28;20397;-79
2022/02/12 08:47:49;;;;;;;11.25;5.93;;;;;;;2.28;87.35;102967.63;5081442;28;20071;-80
2022/02/12 08:50:15;;;;;;;9.80;5.60;;;;;;;2.28;87.29;102963.31;5081360;28;20036;-80
2022/02/12 08:52:40;;;;;;;12.60;5.63;;;;;;;2.29;87.20;102962.50;5094468;28;20051;-79
2022/02/12 08:55:07;;;;;;;11.60;5.65;;;;;;;2.28;87.06;102955.56;5088625;28;20027;-79
2022/02/12 08:57:33;;;;;;;12.40;6.25;;;;;;;2.32;87.32;102953.94;5081965;28;20106;-80
2022/02/12 08:59:58;;;;;;;12.10;5.65;;;;;;;2.34;87.54;102946.22;5091175;28;20047;-79
2022/02/12 09:02:24;;;;;;;13.02;5.80;;;;;;;2.35;87.48;102943.69;5097983;28;20037;-79
2022/02/12 09:04:49;;;;;;;8.68;5.53;;;;;;;2.36;87.47;102942.81;5094047;27;20066;-80
2022/02/12 09:07:15;;;;;;;7.43;5.30;;;;;;;2.39;87.46;102935.16;5098156;28;20047;-80
2022/02/12 09:09:42;;;;;;;7.68;4.95;;;;;;;2.41;87.67;102935.22;5115138;28;20054;-80
2022/02/12 09:12:11;;;;;;;7.65;5.60;;;;;;;2.43;87.84;102928.38;5076039;28;20131;-80
2022/02/12 09:14:37;;;;;;;;;;;;;;;2.44;87.72;102920.66;5090142;28;20232;-80
2022/02/12 09:17:03;;;;;;;13.45;5.75;;;;;;;2.44;87.52;102919.78;5115940;28;20016;-80
2022/02/12 09:19:29;;;;;;;8.90;5.35;;;;;;;2.47;87.56;102912.97;5113696;28;20070;-80
2022/02/12 09:21:54;;;;;;;11.98;6.07;;;;;;;2.48;87.81;102908.69;5115857;28;20219;-80
2022/02/12 09:24:20;;;;;;;9.25;5.57;;;;;;;2.48;87.21;102908.69;5111115;28;20062;-80
2022/02/12 09:26:45;;;;;;;7.70;5.25;;;;;;;2.50;87.26;102912.19;5115732;28;20070;-80
2022/02/12 09:29:12;;;;;;;11.50;5.60;;;;;;;2.53;87.42;102911.38;5114850;28;20063;-80
2022/02/12 09:31:37;;;;;;;9.05;5.28;;;;;;;2.56;87.51;102901.09;5115492;28;20058;-80
2022/02/12 09:34:04;;;;;;;12.60;5.80;;;;;;;2.57;87.46;102898.56;5090380;28;20261;-80
2022/02/12 09:36:29;;;;;;;9.88;5.30;;;;;;;2.61;87.61;102907.28;5111620;28;20039;-80
2022/02/12 09:38:54;;;;;;;15.32;6.30;;;;;;;2.62;87.02;102898.66;5098232;28;20035;-80
2022/02/12 09:41:23;;;;;;;10.02;5.55;;;;;;;2.66;87.19;102897.94;5076674;28;20454;-80
2022/02/12 09:43:50;;;;;;;9.63;5.57;;;;;;;2.68;87.30;102901.41;5089053;28;20059;-80
2022/02/12 09:46:31;;;;;;;11.88;6.13;;;;;;;2.68;86.10;102896.25;5089960;28;20023;-80
2022/02/12 09:49:01;;;;;;;14.45;5.82;;;;;;;2.69;86.43;102888.53;5096272;28;20238;-80
2022/02/12 09:51:28;;;;;;;14.88;6.35;;;;;;;2.72;86.20;102897.19;5096249;28;20071;-80
2022/02/12 09:53:54;;;;;;;10.38;6.13;;;;;;;2.73;86.17;102892.06;5114805;27;20047;-80
2022/02/12 09:56:20;;;;;;;13.27;6.13;;;;;;;2.75;85.85;102898.16;5119612;28;20035;-80
2022/02/12 09:58:45;;;;;;;11.70;6.05;;;;;;;2.77;86.26;102891.31;5117069;28;20107;-80
2022/02/12 10:01:11;;;;;;;9.23;4.95;;;;;;;2.82;86.36;102892.28;5065947;28;20308;-80
2022/02/12 10:03:41;;;;;;;17.38;6.47;;;;;;;2.84;86.11;102887.16;5071873;28;20040;-80
2022/02/12 10:06:07;;;;;;;11.82;5.68;;;;;;;2.86;86.09;102876.00;5066567;28;20112;-80
2022/02/12 10:08:37;;;;;;;9.75;5.35;;;;;;;2.87;85.67;102877.75;5072658;28;20044;-80
2022/02/12 10:11:12;;;;;;;11.07;5.05;;;;;;;2.93;86.03;102870.94;5076556;28;20082;-80
2022/02/12 10:13:37;;;;;;;13.98;5.32;;;;;;;2.95;86.21;102869.25;5075236;28;20036;-80
2022/02/12 10:16:04;;;;;;;15.57;5.80;;;;;;;2.98;86.28;102856.41;5078439;28;20036;-80
2022/02/12 10:18:32;;;;;;;16.60;5.63;;;;;;;2.98;85.55;102851.22;5074859;28;20051;-80
2022/02/12 10:20:59;;;;;;;11.57;5.27;;;;;;;3.01;85.73;102853.91;5055524;28;20105;-80
2022/02/12 10:23:27;;;;;;;11.70;5.63;;;;;;;3.01;85.22;102854.75;5068873;28;20031;-80
2022/02/12 10:26:02;;;;;;;9.57;5.10;;;;;;;3.04;85.68;102843.63;5072440;28;20356;-80
2022/02/12 10:28:32;;;;;;;9.27;5.75;;;;;;;3.07;85.71;102843.66;5074283;28;20103;-80
2022/02/12 10:30:59;;;;;;;7.63;4.82;;;;;;;3.10;85.97;102848.06;5074156;28;20350;-80
2022/02/12 10:33:27;;;;;;;8.43;5.05;;;;;;;3.12;86.08;102836.88;5074366;28;20340;-80
2022/02/12 10:36:00;;;;;;;6.18;5.13;;;;;;;3.15;85.36;102843.88;5073743;28;20155;-80
2022/02/12 10:38:33;;;;;;;8.15;4.60;;;;;;;3.17;85.42;102850.81;5069774;28;20040;-80
2022/02/12 10:41:10;;;;;;;8.55;4.55;;;;;;;3.22;85.34;102853.50;5079358;28;20032;-80
2022/02/12 10:43:37;;;;;;;8.38;5.30;;;;;;;3.21;84.68;102862.97;5058704;28;20060;-80
2022/02/12 10:46:03;;;;;;;18.38;5.82;;;;;;;3.24;83.85;102857.00;5056841;28;20033;-80
2022/02/12 10:48:30;;;;;;;13.68;4.97;;;;;;;3.25;83.93;102850.97;5058236;28;20366;-80
2022/02/12 10:51:00;;;;;;;13.80;5.15;;;;;;;3.26;82.89;102852.75;5054027;28;20183;-81
2022/02/12 10:53:26;;;;;;;9.02;4.57;;;;;;;3.29;83.04;102860.56;5076556;28;20028;-80
2022/02/12 10:55:58;;;;;;;13.85;5.40;;;;;;;3.30;82.63;102851.97;5066323;28;20238;-80
2022/02/12 10:58:24;;;;;;;14.65;5.00;;;;;;;3.33;82.66;102848.53;5078936;28;20339;-80
2022/02/12 11:00:50;;;;;;;13.00;5.70;;;;;;;3.34;81.50;102840.81;5061879;28;20055;-80
2022/02/12 11:03:18;;;;;;;10.23;5.72;;;;;;;3.36;80.77;102844.31;5096968;28;20117;-80
2022/02/12 11:05:51;;;;;;;15.38;4.75;;;;;;;3.40;81.30;102830.59;5076490;28;20430;-80
2022/02/12 11:08:20;;;;;;;11.63;5.00;;;;;;;3.42;81.35;102840.97;5091642;28;20046;-80
2022/02/12 11:10:46;;;;;;;6.35;4.47;;;;;;;3.45;81.00;102833.28;5059644;28;20032;-80
2022/02/12 11:13:12;;;;;;;13.32;4.80;;;;;;;3.48;80.68;102830.75;5096980;28;20074;-80
2022/02/12 11:15:37;;;;;;;11.38;5.00;;;;;;;3.50;79.95;102816.13;5073794;28;20107;-80
2022/02/12 11:18:10;;;;;;;8.80;5.03;;;;;;;3.52;80.40;102803.19;5097453;28;20040;-80
2022/02/12 11:20:37;;;;;;;9.20;4.57;;;;;;;3.55;80.63;102800.69;5097339;28;20212;-80
2022/02/12 11:23:21;;;;;;;8.75;3.95;;;;;;;3.57;79.53;102791.22;5102271;28;20103;-81
2022/02/12 11:25:51;;;;;;;11.18;4.38;;;;;;;3.57;80.21;102784.31;5103122;28;20326;-80
2022/02/12 11:28:17;;;;;;;9.05;3.78;;;;;;;3.61;80.15;102790.41;5089873;28;20098;-80
2022/02/12 11:30:45;;;;;;;9.85;4.07;;;;;;;3.61;80.51;102780.91;5073569;28;20263;-80
2022/02/12 11:33:16;;;;;;;8.82;4.68;;;;;;;3.64;80.19;102777.53;5081608;28;20374;-80